createdAt,value
2022-12-02T00:00:05.829Z,22.80
2022-12-02T00:02:29.224Z,23.15
2022-12-02T00:04:56.932Z,22.85
2022-12-02T00:07:19.801Z,22.20
2022-12-02T00:09:43.433Z,20.95
2022-12-02T00:12:32.627Z,21.70
2022-12-02T00:14:59.861Z,20.02
2022-12-02T00:17:19.721Z,19.35
2022-12-02T00:19:39.283Z,21.23
2022-12-02T00:21:58.915Z,17.63
2022-12-02T00:24:19.251Z,17.63
2022-12-02T00:26:38.871Z,16.77
2022-12-02T00:28:58.355Z,16.63
2022-12-02T00:31:18.103Z,16.58
2022-12-02T00:33:37.854Z,17.02
2022-12-02T00:35:58.679Z,18.80
2022-12-02T00:38:18.578Z,18.92
2022-12-02T00:40:38.445Z,19.17
2022-12-02T00:43:21.036Z,17.70
2022-12-02T00:46:00.245Z,19.00
2022-12-02T00:48:20.420Z,18.67
2022-12-02T00:50:40.152Z,21.05
2022-12-02T00:52:59.850Z,22.80
2022-12-02T00:55:19.724Z,22.08
2022-12-02T00:57:39.757Z,21.88
2022-12-02T01:00:01.385Z,22.58
2022-12-02T01:02:21.631Z,22.00
2022-12-02T01:04:41.671Z,23.73
2022-12-02T01:07:01.670Z,24.25
2022-12-02T01:09:21.218Z,22.38
2022-12-02T01:11:40.875Z,21.48
2022-12-02T01:14:00.510Z,22.92
2022-12-02T01:16:20.150Z,25.73
2022-12-02T01:18:40.117Z,29.35
2022-12-02T01:20:59.786Z,29.33
2022-12-02T01:23:19.813Z,23.10
2022-12-02T01:25:39.673Z,21.10
2022-12-02T01:27:59.682Z,21.08
2022-12-02T01:30:19.619Z,19.52
2022-12-02T01:32:39.485Z,22.35
2022-12-02T01:34:59.124Z,18.08
2022-12-02T01:37:18.772Z,22.15
2022-12-02T01:39:38.293Z,24.77
2022-12-02T01:41:58.235Z,27.30
2022-12-02T01:44:18.519Z,28.35
2022-12-02T01:46:38.401Z,22.33
2022-12-02T01:48:58.675Z,20.80
2022-12-02T01:51:18.304Z,17.08
2022-12-02T01:53:39.158Z,16.02
2022-12-02T01:55:59.246Z,14.23
2022-12-02T01:58:27.325Z,16.35
2022-12-02T02:00:47.224Z,14.77
2022-12-02T02:03:07.530Z,13.73
2022-12-02T02:05:30.959Z,13.65
2022-12-02T02:07:54.327Z,16.33
2022-12-02T02:10:14.419Z,24.67
2022-12-02T02:12:35.581Z,23.40
2022-12-02T02:14:55.922Z,23.88
2022-12-02T02:17:16.100Z,23.17
2022-12-02T02:19:36.092Z,27.50
2022-12-02T02:21:56.934Z,24.15
2022-12-02T02:24:16.688Z,23.08
2022-12-02T02:26:36.708Z,22.17
2022-12-02T02:28:56.750Z,17.50
2022-12-02T02:31:16.935Z,19.45
2022-12-02T02:33:37.734Z,18.48
2022-12-02T02:35:57.856Z,21.10
2022-12-02T02:38:21.938Z,23.00
2022-12-02T02:40:42.535Z,20.55
2022-12-02T02:43:03.412Z,21.40
2022-12-02T02:45:26.170Z,21.52
2022-12-02T02:47:46.477Z,22.13
2022-12-02T02:50:07.313Z,20.00
2022-12-02T02:52:27.279Z,23.02
2022-12-02T02:54:46.940Z,21.73
2022-12-02T02:57:08.929Z,21.95
2022-12-02T02:59:28.533Z,25.15
2022-12-02T03:01:50.362Z,32.05
2022-12-02T03:04:12.835Z,42.10
2022-12-02T03:06:37.340Z,42.67
2022-12-02T03:08:58.188Z,41.22
2022-12-02T03:11:18.916Z,42.85
2022-12-02T03:13:40.886Z,40.60
2022-12-02T03:16:04.312Z,37.33
2022-12-02T03:20:44.243Z,34.65
2022-12-02T03:23:04.559Z,32.83
2022-12-02T03:25:24.353Z,30.23
2022-12-02T03:27:44.716Z,20.55
2022-12-02T03:30:05.650Z,22.15
2022-12-02T03:32:25.989Z,24.95
2022-12-02T03:34:46.398Z,22.67
2022-12-02T03:37:06.094Z,22.98
2022-12-02T03:39:26.658Z,20.10
2022-12-02T03:41:47.058Z,22.55
2022-12-02T03:44:07.451Z,18.80
2022-12-02T03:46:28.745Z,17.55
2022-12-02T03:48:49.493Z,16.50
2022-12-02T03:51:11.780Z,16.55
2022-12-02T03:53:33.287Z,16.60
2022-12-02T03:55:53.052Z,16.13
2022-12-02T03:58:12.834Z,18.52
2022-12-02T04:00:33.027Z,22.77
2022-12-02T04:02:52.783Z,23.05
2022-12-02T04:05:13.974Z,22.90
2022-12-02T04:07:33.757Z,22.73
2022-12-02T04:09:53.894Z,22.05
2022-12-02T04:12:13.699Z,24.27
2022-12-02T04:14:33.986Z,26.98
2022-12-02T04:16:53.651Z,24.52
2022-12-02T04:19:14.762Z,22.33
2022-12-02T04:21:34.778Z,19.10
2022-12-02T04:23:54.814Z,20.02
2022-12-02T04:26:15.717Z,19.30
2022-12-02T04:28:36.030Z,18.08
2022-12-02T04:30:57.305Z,20.45
2022-12-02T04:33:17.414Z,18.73
2022-12-02T04:35:38.635Z,21.55
2022-12-02T04:37:58.758Z,25.08
2022-12-02T04:40:18.793Z,23.10
2022-12-02T04:42:38.787Z,21.23
2022-12-02T04:45:00.867Z,26.27
2022-12-02T04:47:20.568Z,26.25
2022-12-02T04:49:40.133Z,33.03
2022-12-02T04:51:59.813Z,35.42
2022-12-02T04:54:19.313Z,33.50
2022-12-02T04:56:39.461Z,35.38
2022-12-02T04:59:00.015Z,33.88
2022-12-02T05:01:19.796Z,31.58
2022-12-02T05:03:39.811Z,35.40
2022-12-02T05:06:00.631Z,35.47
2022-12-02T05:08:20.380Z,34.10
2022-12-02T05:10:40.500Z,34.88
2022-12-02T05:13:00.492Z,35.83
2022-12-02T05:15:21.329Z,35.05
2022-12-02T05:17:42.504Z,28.70
2022-12-02T05:20:03.576Z,18.58
2022-12-02T05:22:23.444Z,15.82
2022-12-02T05:24:43.301Z,18.65
2022-12-02T05:27:03.417Z,19.00
2022-12-02T05:29:23.301Z,18.30
2022-12-02T05:31:43.162Z,15.55
2022-12-02T05:34:03.268Z,16.50
2022-12-02T05:36:23.081Z,15.30
2022-12-02T05:38:42.721Z,15.15
2022-12-02T05:41:02.892Z,16.67
2022-12-02T05:43:25.533Z,17.33
2022-12-02T05:45:45.849Z,18.23
2022-12-02T05:48:09.770Z,16.25
2022-12-02T05:50:32.425Z,27.77
2022-12-02T05:52:52.460Z,29.95
2022-12-02T05:55:16.206Z,26.52
2022-12-02T05:57:35.963Z,24.83
2022-12-02T06:00:22.887Z,27.48
2022-12-02T06:02:52.030Z,23.52
2022-12-02T06:05:26.086Z,22.20
2022-12-02T06:07:47.294Z,19.42
2022-12-02T06:10:28.281Z,21.80
2022-12-02T06:12:48.650Z,22.05
2022-12-02T06:15:14.118Z,27.45
2022-12-02T06:17:33.928Z,30.88
2022-12-02T06:19:56.440Z,39.42
2022-12-02T06:22:24.064Z,35.63
2022-12-02T06:24:44.370Z,33.55
2022-12-02T06:27:04.968Z,20.23
2022-12-02T06:29:26.921Z,22.77
2022-12-02T06:31:47.262Z,15.20
2022-12-02T06:34:40.531Z,15.27
2022-12-02T06:37:09.147Z,14.43
2022-12-02T06:39:28.805Z,14.43
2022-12-02T06:41:48.587Z,13.25
2022-12-02T06:44:45.430Z,17.52
2022-12-02T06:47:33.217Z,23.10
2022-12-02T06:49:53.278Z,25.80
2022-12-02T06:52:21.538Z,18.13
2022-12-02T06:54:44.314Z,22.95
2022-12-02T06:57:08.409Z,16.70
2022-12-02T06:59:28.531Z,17.45
2022-12-02T07:01:51.894Z,14.70
2022-12-02T07:04:44.866Z,18.38
2022-12-02T07:07:27.729Z,20.85
2022-12-02T07:10:01.406Z,22.75
2022-12-02T07:14:44.297Z,20.60
2022-12-02T07:17:21.124Z,21.35
2022-12-02T07:19:44.940Z,19.35
2022-12-02T07:22:31.413Z,16.75
2022-12-02T07:25:16.337Z,15.52
2022-12-02T07:27:40.344Z,12.90
2022-12-02T07:30:01.619Z,15.18
2022-12-02T07:32:21.864Z,13.40
2022-12-02T07:34:41.427Z,14.20
2022-12-02T07:37:01.059Z,16.95
2022-12-02T07:39:21.124Z,15.18
2022-12-02T07:41:41.167Z,17.23
2022-12-02T07:44:00.902Z,21.65
2022-12-02T07:46:20.839Z,18.90
2022-12-02T07:48:40.962Z,21.00
2022-12-02T07:51:01.497Z,26.60
2022-12-02T07:53:21.485Z,44.05
2022-12-02T07:55:41.454Z,27.67
2022-12-02T07:58:01.585Z,24.90
2022-12-02T08:00:22.381Z,25.50
2022-12-02T08:02:42.202Z,25.67
2022-12-02T08:05:02.324Z,23.92
2022-12-02T08:07:22.138Z,26.00
2022-12-02T08:09:42.265Z,26.38
2022-12-02T08:12:01.954Z,24.38
2022-12-02T08:14:21.394Z,29.50
2022-12-02T08:16:41.194Z,33.90
2022-12-02T08:19:01.115Z,27.63
2022-12-02T08:21:21.813Z,28.90
2022-12-02T08:23:41.289Z,25.38
2022-12-02T08:26:00.970Z,23.95
2022-12-02T08:28:20.763Z,23.10
2022-12-02T08:30:41.438Z,24.15
2022-12-02T08:33:01.402Z,26.15
2022-12-02T08:35:21.532Z,24.02
2022-12-02T08:37:41.501Z,29.52
2022-12-02T08:40:01.766Z,27.98
2022-12-02T08:42:21.981Z,24.05
2022-12-02T08:44:41.853Z,16.48
2022-12-02T08:47:01.756Z,14.60
2022-12-02T08:49:22.127Z,18.83
2022-12-02T08:51:42.078Z,21.73
2022-12-02T08:54:02.070Z,21.27
2022-12-02T08:56:21.774Z,22.30
2022-12-02T08:58:41.301Z,16.17
2022-12-02T09:01:00.926Z,19.40
2022-12-02T09:03:20.602Z,23.25
2022-12-02T09:05:41.154Z,32.22
2022-12-02T09:08:01.209Z,36.03
2022-12-02T09:10:21.789Z,37.30
2022-12-02T09:12:41.915Z,34.10
2022-12-02T09:15:01.977Z,50.75
2022-12-02T09:17:21.630Z,33.22
2022-12-02T09:19:41.239Z,29.55
2022-12-02T09:22:00.832Z,51.42
2022-12-02T09:24:20.265Z,36.78
2022-12-02T09:26:40.229Z,29.52
2022-12-02T09:29:00.122Z,27.50
2022-12-02T09:31:19.968Z,31.10
2022-12-02T09:33:40.353Z,33.58
2022-12-02T09:36:00.263Z,19.38
2022-12-02T09:38:20.099Z,20.20
2022-12-02T09:40:39.963Z,17.60
2022-12-02T09:43:01.990Z,15.27
2022-12-02T09:45:22.023Z,13.10
2022-12-02T09:47:42.298Z,13.65
2022-12-02T09:50:02.719Z,18.75
2022-12-02T09:52:26.278Z,20.80
2022-12-02T09:54:46.527Z,17.65
2022-12-02T09:57:13.683Z,14.45
2022-12-02T09:59:33.397Z,16.98
2022-12-02T10:01:56.949Z,18.20
2022-12-02T10:04:20.695Z,26.27
2022-12-02T10:06:41.049Z,28.02
2022-12-02T10:09:01.557Z,27.70
2022-12-02T10:11:28.588Z,26.35
2022-12-02T10:13:48.639Z,25.15
2022-12-02T10:16:13.111Z,20.83
2022-12-02T10:18:33.659Z,21.48
2022-12-02T10:20:53.475Z,22.50
2022-12-02T10:23:18.436Z,25.65
2022-12-02T10:25:41.558Z,24.13
2022-12-02T10:28:01.683Z,18.85
2022-12-02T10:30:24.499Z,28.95
2022-12-02T10:33:01.105Z,30.35
2022-12-02T10:35:21.046Z,28.13
2022-12-02T10:37:40.745Z,27.02
2022-12-02T10:40:22.924Z,27.35
2022-12-02T10:42:43.986Z,21.75
2022-12-02T10:45:20.397Z,23.50
2022-12-02T10:47:39.866Z,22.23
2022-12-02T10:50:00.037Z,17.80
2022-12-02T10:52:41.345Z,19.20
2022-12-02T10:55:05.610Z,18.92
2022-12-02T10:57:31.209Z,16.85
2022-12-02T10:59:52.897Z,17.80
2022-12-02T11:02:50.597Z,20.85
2022-12-02T11:05:23.034Z,18.92
2022-12-02T11:07:51.645Z,14.15
2022-12-02T11:10:20.649Z,13.20
2022-12-02T11:12:51.922Z,16.33
2022-12-02T11:15:36.575Z,15.27
2022-12-02T11:17:56.487Z,15.20
2022-12-02T11:20:30.857Z,17.15
2022-12-02T11:22:59.695Z,16.42
2022-12-02T11:25:46.990Z,11.50
2022-12-02T11:28:18.171Z,12.82
2022-12-02T11:30:38.450Z,11.73
2022-12-02T11:32:58.143Z,11.18
2022-12-02T11:35:56.148Z,16.33
2022-12-02T11:38:21.923Z,11.45
2022-12-02T11:40:41.755Z,13.07
2022-12-02T11:43:46.724Z,11.75
2022-12-02T11:46:07.971Z,15.48
2022-12-02T11:48:27.919Z,13.80
2022-12-02T11:50:47.855Z,12.98
2022-12-02T11:53:12.946Z,17.83
2022-12-02T11:55:39.335Z,16.88
2022-12-02T11:58:00.092Z,19.67
2022-12-02T12:00:32.528Z,16.35
2022-12-02T12:03:18.157Z,20.98
2022-12-02T12:05:40.317Z,24.07
2022-12-02T12:08:03.327Z,25.40
2022-12-02T12:10:35.322Z,21.95
2022-12-02T12:13:15.959Z,19.70
2022-12-02T12:15:55.428Z,30.30
2022-12-02T12:18:35.616Z,23.02
2022-12-02T12:20:55.743Z,30.85
2022-12-02T12:23:29.714Z,34.38
2022-12-02T12:25:49.593Z,27.20
2022-12-02T12:28:29.674Z,18.48
2022-12-02T12:30:49.442Z,20.50
2022-12-02T12:33:09.510Z,21.30
2022-12-02T12:35:29.608Z,22.67
2022-12-02T12:37:49.073Z,13.73
2022-12-02T12:40:09.123Z,13.63
2022-12-02T12:42:28.606Z,15.80
2022-12-02T12:44:48.191Z,12.23
2022-12-02T12:47:07.826Z,22.92
2022-12-02T12:49:28.014Z,19.60
2022-12-02T12:51:48.112Z,15.02
2022-12-02T12:54:07.834Z,17.92
2022-12-02T12:56:34.721Z,10.05
2022-12-02T12:58:54.655Z,9.93
2022-12-02T13:01:14.388Z,16.20
2022-12-02T13:03:34.298Z,14.30
2022-12-02T13:05:54.314Z,12.50
2022-12-02T13:08:14.823Z,15.45
2022-12-02T13:10:35.407Z,13.27
2022-12-02T13:12:55.065Z,14.23
2022-12-02T13:15:15.769Z,30.25
2022-12-02T13:17:35.522Z,16.42
2022-12-02T13:19:55.349Z,13.88
2022-12-02T13:22:14.924Z,19.38
2022-12-02T13:24:42.709Z,18.98
2022-12-02T13:27:03.223Z,18.90
2022-12-02T13:29:23.116Z,13.13
2022-12-02T13:31:43.374Z,13.65
2022-12-02T13:34:02.947Z,14.98
2022-12-02T13:36:22.680Z,14.48
2022-12-02T13:38:42.272Z,13.25
2022-12-02T13:41:01.862Z,12.35
2022-12-02T13:43:21.668Z,13.40
2022-12-02T13:45:43.543Z,15.48
2022-12-02T13:48:05.909Z,13.80
2022-12-02T13:50:30.400Z,13.65
2022-12-02T13:52:50.531Z,11.82
2022-12-02T13:55:10.438Z,13.88
2022-12-02T13:57:30.016Z,13.27
2022-12-02T13:59:49.560Z,12.77
2022-12-02T14:02:10.895Z,13.35
2022-12-02T14:04:30.924Z,14.48
2022-12-02T14:06:50.870Z,17.05
2022-12-02T14:09:10.995Z,16.88
2022-12-02T14:11:30.618Z,20.55
2022-12-02T14:13:53.427Z,21.92
2022-12-02T14:18:33.033Z,16.08
2022-12-02T14:20:52.756Z,19.70
2022-12-02T14:23:12.973Z,19.60
2022-12-02T14:25:32.842Z,19.17
2022-12-02T14:27:52.835Z,23.17
2022-12-02T14:30:13.329Z,21.33
2022-12-02T14:32:32.873Z,22.42
2022-12-02T14:34:52.952Z,23.15
2022-12-02T14:37:15.143Z,22.67
2022-12-02T14:39:35.321Z,21.25
2022-12-02T14:41:55.053Z,21.05
2022-12-02T14:44:14.933Z,18.05
2022-12-02T14:46:34.896Z,23.08
2022-12-02T14:49:06.997Z,16.15
2022-12-02T14:51:31.805Z,15.07
2022-12-02T14:53:51.425Z,14.55
2022-12-02T14:56:11.280Z,13.13
2022-12-02T14:58:31.045Z,13.80
2022-12-02T15:00:50.644Z,13.40
2022-12-02T15:03:10.601Z,11.35
2022-12-02T15:05:31.585Z,11.00
2022-12-02T15:07:51.699Z,12.48
2022-12-02T15:10:12.914Z,12.60
2022-12-02T15:12:32.592Z,14.02
2022-12-02T15:14:52.381Z,18.23
2022-12-02T15:17:13.627Z,20.08
2022-12-02T15:19:33.411Z,20.80
2022-12-02T15:21:59.574Z,23.25
2022-12-02T15:24:19.656Z,18.55
2022-12-02T15:26:39.451Z,18.65
2022-12-02T15:29:00.453Z,15.60
2022-12-02T15:31:20.708Z,13.48
2022-12-02T15:33:45.960Z,17.00
2022-12-02T15:36:07.605Z,17.70
2022-12-02T15:38:29.660Z,20.20
2022-12-02T15:40:49.389Z,23.85
2022-12-02T15:43:09.086Z,23.48
2022-12-02T15:45:28.842Z,23.73
2022-12-02T15:47:48.287Z,23.45
2022-12-02T15:50:09.061Z,22.02
2022-12-02T15:52:28.807Z,20.75
2022-12-02T15:54:50.181Z,24.70
2022-12-02T15:57:10.573Z,50.90
2022-12-02T15:59:30.140Z,26.92
2022-12-02T16:01:50.402Z,30.27
2022-12-02T16:04:10.324Z,30.33
2022-12-02T16:06:31.688Z,44.15
2022-12-02T16:08:55.382Z,41.03
2022-12-02T16:11:17.713Z,33.13
2022-12-02T16:13:37.660Z,26.92
2022-12-02T16:15:58.005Z,17.38
2022-12-02T16:18:18.013Z,22.73
2022-12-02T16:20:39.026Z,38.60
2022-12-02T16:23:00.020Z,32.70
2022-12-02T16:25:19.790Z,28.90
2022-12-02T16:27:39.501Z,25.77
2022-12-02T16:29:59.722Z,24.42
2022-12-02T16:32:20.913Z,28.95
2022-12-02T16:34:42.313Z,23.67
2022-12-02T16:37:02.583Z,36.95
2022-12-02T16:39:22.677Z,44.75
2022-12-02T16:41:45.067Z,41.40
2022-12-02T16:44:04.968Z,37.95
2022-12-02T16:46:24.741Z,51.25
2022-12-02T16:48:45.546Z,44.53
2022-12-02T16:51:08.942Z,45.03
2022-12-02T16:53:31.197Z,37.40
2022-12-02T16:55:51.829Z,28.67
2022-12-02T16:58:12.660Z,43.22
2022-12-02T17:00:32.648Z,41.35
2022-12-02T17:02:52.308Z,28.90
2022-12-02T17:05:12.256Z,36.75
2022-12-02T17:07:32.288Z,31.17
2022-12-02T17:09:53.755Z,31.17
2022-12-02T17:12:13.397Z,29.58
2022-12-02T17:14:33.041Z,28.58
2022-12-02T17:16:52.693Z,40.45
2022-12-02T17:19:13.959Z,56.35
2022-12-02T17:21:34.021Z,37.30
2022-12-02T17:23:53.668Z,35.13
2022-12-02T17:26:13.476Z,36.47
2022-12-02T17:28:33.449Z,43.38
2022-12-02T17:30:53.781Z,37.50
2022-12-02T17:33:13.814Z,35.22
2022-12-02T17:35:33.960Z,32.95
2022-12-02T17:37:53.882Z,30.95
2022-12-02T17:40:14.637Z,30.10
2022-12-02T17:42:34.779Z,32.08
2022-12-02T17:44:55.262Z,34.78
2022-12-02T17:47:15.420Z,36.40
2022-12-02T17:49:36.662Z,30.63
2022-12-02T17:52:18.822Z,36.10
2022-12-02T17:54:37.593Z,36.85
2022-12-02T17:56:57.513Z,34.40
2022-12-02T17:59:17.954Z,30.10
2022-12-02T18:01:40.109Z,31.15
2022-12-02T18:04:00.562Z,26.38
2022-12-02T18:06:20.306Z,25.08
2022-12-02T18:08:41.074Z,25.85
2022-12-02T18:11:02.135Z,24.52
2022-12-02T18:13:22.063Z,23.73
2022-12-02T18:15:43.129Z,22.17
2022-12-02T18:18:03.198Z,23.25
2022-12-02T18:20:23.277Z,26.77
2022-12-02T18:22:45.317Z,26.52
2022-12-02T18:25:05.662Z,35.83
2022-12-02T18:27:27.863Z,48.50
2022-12-02T18:29:49.807Z,48.60
2022-12-02T18:32:09.665Z,46.90
2022-12-02T18:34:31.504Z,51.40
2022-12-02T18:36:52.476Z,55.20
2022-12-02T18:39:12.391Z,43.42
2022-12-02T18:41:32.701Z,34.97
2022-12-02T18:43:52.341Z,43.97
2022-12-02T18:46:11.921Z,43.85
2022-12-02T18:48:31.499Z,42.60
2022-12-02T18:50:51.619Z,46.88
2022-12-02T18:53:12.770Z,39.80
2022-12-02T18:55:33.341Z,38.00
2022-12-02T18:57:54.337Z,37.90
2022-12-02T19:00:15.010Z,34.55
2022-12-02T19:02:35.000Z,44.25
2022-12-02T19:04:54.982Z,33.38
2022-12-02T19:07:18.909Z,29.20
2022-12-02T19:09:38.523Z,33.17
2022-12-02T19:11:58.212Z,35.30
2022-12-02T19:14:17.849Z,54.55
2022-12-02T19:16:38.819Z,76.25
2022-12-02T19:18:59.828Z,87.18
2022-12-02T19:21:24.835Z,84.43
2022-12-02T19:23:45.211Z,76.35
2022-12-02T19:26:04.991Z,73.15
2022-12-02T19:28:25.188Z,47.15
2022-12-02T19:30:45.220Z,31.17
2022-12-02T19:33:05.127Z,43.97
2022-12-02T19:35:24.846Z,33.58
2022-12-02T19:37:44.606Z,35.22
2022-12-02T19:40:05.374Z,25.33
2022-12-02T19:42:25.052Z,25.00
2022-12-02T19:44:44.580Z,26.23
2022-12-02T19:47:09.527Z,33.05
2022-12-02T19:49:31.052Z,20.88
2022-12-02T19:51:50.741Z,23.10
2022-12-02T19:54:10.855Z,24.92
2022-12-02T19:56:30.524Z,27.50
2022-12-02T19:58:50.801Z,27.58
2022-12-02T20:01:11.208Z,35.92
2022-12-02T20:03:31.405Z,33.80
2022-12-02T20:05:51.532Z,29.52
2022-12-02T20:08:11.718Z,30.30
2022-12-02T20:10:31.769Z,30.45
2022-12-02T20:12:52.025Z,39.03
2022-12-02T20:15:13.228Z,45.42
2022-12-02T20:17:33.183Z,31.50
2022-12-02T20:19:53.849Z,29.50
2022-12-02T20:22:13.559Z,29.65
2022-12-02T20:24:33.299Z,31.50
2022-12-02T20:26:54.955Z,30.92
2022-12-02T20:29:14.559Z,26.17
2022-12-02T20:31:34.371Z,29.77
2022-12-02T20:33:54.405Z,27.50
2022-12-02T20:36:14.389Z,26.63
2022-12-02T20:38:34.626Z,26.38
2022-12-02T20:40:54.858Z,29.33
2022-12-02T20:43:14.862Z,27.08
2022-12-02T20:45:35.057Z,26.25
2022-12-02T20:47:54.642Z,43.22
2022-12-02T20:50:14.379Z,49.22
2022-12-02T20:52:34.137Z,58.78
2022-12-02T20:54:53.892Z,68.07
2022-12-02T20:57:14.429Z,70.32
2022-12-02T20:59:34.424Z,59.30
2022-12-02T21:01:54.202Z,59.75
2022-12-02T21:04:14.356Z,80.32
2022-12-02T21:06:34.439Z,67.97
2022-12-02T21:08:55.333Z,68.68
2022-12-02T21:11:15.173Z,61.60
2022-12-02T21:13:34.769Z,64.95
2022-12-02T21:15:54.674Z,59.20
2022-12-02T21:18:14.745Z,54.58
2022-12-02T21:20:34.846Z,65.78
2022-12-02T21:22:55.094Z,54.53
2022-12-02T21:25:15.370Z,45.00
2022-12-02T21:27:35.159Z,48.92
2022-12-02T21:29:55.102Z,53.88
2022-12-02T21:32:15.679Z,49.97
2022-12-02T21:34:35.494Z,29.63
2022-12-02T21:36:55.139Z,28.90
2022-12-02T21:39:14.817Z,28.98
2022-12-02T21:41:34.454Z,32.60
2022-12-02T21:43:54.176Z,44.70
2022-12-02T21:46:14.652Z,36.70
2022-12-02T21:48:34.432Z,37.75
2022-12-02T21:50:54.142Z,37.75
2022-12-02T21:53:14.109Z,35.55
2022-12-02T21:55:34.086Z,36.03
2022-12-02T21:57:54.053Z,46.35
2022-12-02T22:00:14.829Z,42.65
2022-12-02T22:02:34.550Z,35.35
2022-12-02T22:04:55.346Z,28.77
2022-12-02T22:07:33.588Z,31.67
2022-12-02T22:09:53.880Z,26.88
2022-12-02T22:12:13.854Z,23.23
2022-12-02T22:14:33.708Z,21.27
2022-12-02T22:16:53.605Z,20.23
2022-12-02T22:19:15.302Z,23.33
2022-12-02T22:21:35.238Z,26.70
2022-12-02T22:23:54.873Z,23.30
2022-12-02T22:26:19.933Z,25.02
2022-12-02T22:28:40.200Z,23.88
2022-12-02T22:31:00.353Z,26.00
2022-12-02T22:33:19.838Z,28.15
2022-12-02T22:35:39.535Z,24.35
2022-12-02T22:37:59.238Z,24.80
2022-12-02T22:40:19.117Z,24.05
2022-12-02T22:42:38.799Z,21.90
2022-12-02T22:44:58.379Z,22.35
2022-12-02T22:47:18.131Z,24.65
2022-12-02T22:49:37.781Z,23.58
2022-12-02T22:51:57.432Z,26.35
2022-12-02T22:54:18.156Z,28.15
2022-12-02T22:56:37.924Z,25.88
2022-12-02T22:58:57.687Z,28.58
2022-12-02T23:01:18.066Z,28.55
2022-12-02T23:03:38.215Z,28.17
2022-12-02T23:05:57.917Z,32.92
2022-12-02T23:08:17.885Z,31.27
2022-12-02T23:10:38.337Z,31.02
2022-12-02T23:12:58.270Z,30.42
2022-12-02T23:17:58.544Z,38.83
2022-12-02T23:20:18.663Z,41.90
2022-12-02T23:22:38.323Z,38.88
2022-12-02T23:24:58.089Z,36.97
2022-12-02T23:27:17.715Z,39.00
2022-12-02T23:29:37.240Z,34.08
2022-12-02T23:31:57.697Z,32.67
2022-12-02T23:34:17.374Z,35.88
2022-12-02T23:36:37.052Z,37.88
2022-12-02T23:38:56.919Z,39.90
2022-12-02T23:41:16.605Z,41.47
2022-12-02T23:43:36.214Z,36.63
2022-12-02T23:45:56.335Z,34.88
2022-12-02T23:48:16.266Z,38.28
2022-12-02T23:50:35.901Z,34.45
2022-12-02T23:52:55.453Z,33.78
2022-12-02T23:55:15.425Z,34.97
2022-12-02T23:57:35.493Z,33.80
2022-12-02T23:59:55.636Z,35.08
